Time;durP1;ratioP1;P1;durP2;ratioP2;P2;SDS_P1;SDS_P2;PMS_P1;PMS_P2;Temp;Humidity;BMP_temperature;BMP_pressure;BME280_temperature;BME280_humidity;BME280_pressure;Samples;Min_cycle;Max_cycle;Signal;HPM_P1;HPM_P2
2022/03/16 00:02:21;;;;;;;33.40;16.92;;;;;;;;;;5052059;28;20108;-64
2022/03/16 00:04:51;;;;;;;27.98;15.88;;;;;;;;;;5045833;28;20032;-63
2022/03/16 00:07:17;;;;;;;29.65;15.38;;;;;;;;;;5049680;28;20364;-64
2022/03/16 00:09:44;;;;;;;28.38;16.25;;;;;;;;;;5049190;28;20127;-63
2022/03/16 00:12:10;;;;;;;27.40;15.80;;;;;;;;;;5043275;28;20040;-62
2022/03/16 00:14:36;;;;;;;27.20;16.23;;;;;;;;;;5048318;28;20032;-63
2022/03/16 00:17:02;;;;;;;31.98;17.30;;;;;;;;;;5049761;28;20119;-63
2022/03/16 00:19:28;;;;;;;29.02;16.35;;;;;;;;;;5042402;28;20159;-63
2022/03/16 00:21:53;;;;;;;27.27;15.45;;;;;;;;;;5044758;28;20128;-62
2022/03/16 00:24:19;;;;;;;25.50;15.23;;;;;;;;;;5045916;28;20493;-62
2022/03/16 00:26:44;;;;;;;24.00;15.45;;;;;;;;;;5047178;28;20144;-62
2022/03/16 00:29:09;;;;;;;26.88;15.27;;;;;;;;;;5049733;28;20057;-62
2022/03/16 00:31:35;;;;;;;28.20;15.75;;;;;;;;;;5050590;28;20134;-62
2022/03/16 00:34:01;;;;;;;29.08;15.55;;;;;;;;;;5051564;28;20037;-63
2022/03/16 00:36:27;;;;;;;31.60;16.58;;;;;;;;;;5049972;28;20037;-63
2022/03/16 00:38:52;;;;;;;28.88;16.40;;;;;;;;;;5043960;28;20037;-62
2022/03/16 00:41:18;;;;;;;26.77;15.63;;;;;;;;;;5036396;28;20192;-63
2022/03/16 00:43:44;;;;;;;29.30;15.50;;;;;;;;;;5047605;28;20059;-63
2022/03/16 00:46:09;;;;;;;27.10;15.07;;;;;;;;;;5049180;28;20485;-64
2022/03/16 00:48:34;;;;;;;24.98;13.82;;;;;;;;;;5050238;28;20110;-63
2022/03/16 00:51:00;;;;;;;30.33;16.40;;;;;;;;;;5045943;28;20103;-62
2022/03/16 00:53:26;;;;;;;29.90;15.48;;;;;;;;;;5048406;28;20505;-63
2022/03/16 00:55:51;;;;;;;30.15;16.75;;;;;;;;;;5049787;28;20035;-63
2022/03/16 00:58:17;;;;;;;27.77;15.75;;;;;;;;;;5049839;28;20047;-63
2022/03/16 01:00:43;;;;;;;34.28;16.02;;;;;;;;;;5050698;28;20446;-64
2022/03/16 01:03:08;;;;;;;27.25;15.00;;;;;;;;;;5046568;28;20033;-63
2022/03/16 01:05:33;;;;;;;28.13;15.00;;;;;;;;;;5044293;28;20119;-63
2022/03/16 01:07:59;;;;;;;26.40;15.05;;;;;;;;;;5050530;28;20394;-63
2022/03/16 01:10:24;;;;;;;25.95;15.43;;;;;;;;;;5053102;28;20107;-63
2022/03/16 01:12:50;;;;;;;28.77;15.48;;;;;;;;;;5048050;28;20389;-63
2022/03/16 01:15:15;;;;;;;29.90;15.35;;;;;;;;;;5047542;28;20029;-63
2022/03/16 01:17:41;;;;;;;33.15;16.52;;;;;;;;;;5045047;28;20041;-62
2022/03/16 01:20:07;;;;;;;30.13;15.98;;;;;;;;;;5056395;28;20401;-62
2022/03/16 01:22:32;;;;;;;29.35;16.85;;;;;;;;;;5051635;28;20045;-62
2022/03/16 01:24:58;;;;;;;31.90;17.20;;;;;;;;;;5047870;28;20094;-62
2022/03/16 01:27:23;;;;;;;29.10;16.15;;;;;;;;;;5056023;28;20650;-63
2022/03/16 01:29:48;;;;;;;34.03;17.25;;;;;;;;;;5064778;28;20502;-63
2022/03/16 01:32:14;;;;;;;28.98;16.27;;;;;;;;;;5052805;28;20577;-63
2022/03/16 01:34:39;;;;;;;27.88;15.90;;;;;;;;;;5052346;28;20025;-63
2022/03/16 01:37:05;;;;;;;29.23;15.77;;;;;;;;;;5050927;28;20375;-63
2022/03/16 01:39:31;;;;;;;28.83;16.02;;;;;;;;;;5038738;28;20025;-64
2022/03/16 01:41:57;;;;;;;30.63;16.00;;;;;;;;;;5053397;28;20033;-63
2022/03/16 01:44:42;;;;;;;27.15;15.27;;;;;;;;;;5046451;28;20584;-64
2022/03/16 01:47:08;;;;;;;26.95;14.07;;;;;;;;;;5044482;28;20041;-63
2022/03/16 01:49:33;;;;;;;27.02;15.25;;;;;;;;;;5052826;28;20040;-63
2022/03/16 01:51:58;;;;;;;26.15;14.35;;;;;;;;;;5049539;28;20482;-63
2022/03/16 01:54:24;;;;;;;27.08;14.73;;;;;;;;;;5033815;28;20033;-62
2022/03/16 01:56:49;;;;;;;26.63;14.80;;;;;;;;;;5045608;28;20041;-63
2022/03/16 01:59:15;;;;;;;26.90;15.15;;;;;;;;;;5053227;28;20025;-63
2022/03/16 02:01:40;;;;;;;27.83;15.10;;;;;;;;;;5050682;28;20028;-63
2022/03/16 02:04:05;;;;;;;27.75;15.25;;;;;;;;;;5041937;28;20041;-62
2022/03/16 02:06:32;;;;;;;26.67;15.02;;;;;;;;;;5045888;28;20049;-63
2022/03/16 02:08:57;;;;;;;25.15;14.90;;;;;;;;;;5035454;28;20037;-63
2022/03/16 02:11:23;;;;;;;27.55;14.48;;;;;;;;;;5051774;28;20099;-63
2022/03/16 02:13:48;;;;;;;25.23;14.80;;;;;;;;;;5053865;28;20043;-63
2022/03/16 02:16:14;;;;;;;26.15;14.65;;;;;;;;;;5055477;28;20032;-62
2022/03/16 02:18:39;;;;;;;25.45;14.88;;;;;;;;;;5053176;28;20389;-63
2022/03/16 02:21:07;;;;;;;29.48;15.73;;;;;;;;;;5051423;28;20259;-64
2022/03/16 02:23:32;;;;;;;27.95;14.93;;;;;;;;;;5047152;28;20127;-62
2022/03/16 02:25:58;;;;;;;30.70;15.80;;;;;;;;;;5057560;28;20182;-63
2022/03/16 02:28:24;;;;;;;30.08;16.65;;;;;;;;;;5051486;28;20084;-62
2022/03/16 02:30:50;;;;;;;26.77;15.18;;;;;;;;;;5051516;28;20371;-62
2022/03/16 02:33:16;;;;;;;25.38;15.63;;;;;;;;;;5051445;28;20041;-62
2022/03/16 02:35:41;;;;;;;29.60;16.05;;;;;;;;;;5051263;28;20024;-63
2022/03/16 02:38:07;;;;;;;25.85;15.25;;;;;;;;;;5050475;28;20115;-62
2022/03/16 02:40:33;;;;;;;28.67;14.88;;;;;;;;;;5051606;28;20431;-63
2022/03/16 02:42:58;;;;;;;26.70;14.45;;;;;;;;;;5051462;28;20029;-64
2022/03/16 02:45:23;;;;;;;28.55;14.77;;;;;;;;;;5048828;28;20033;-63
2022/03/16 02:47:49;;;;;;;24.50;14.40;;;;;;;;;;5052217;28;20394;-63
2022/03/16 02:50:16;;;;;;;24.50;14.73;;;;;;;;;;5049510;28;20056;-63
2022/03/16 02:52:43;;;;;;;27.23;15.38;;;;;;;;;;5051048;28;20212;-63
2022/03/16 02:55:10;;;;;;;29.73;15.57;;;;;;;;;;5039289;28;21422;-63
2022/03/16 02:57:36;;;;;;;33.05;18.88;;;;;;;;;;5055389;28;20029;-63
2022/03/16 03:00:07;;;;;;;37.30;19.98;;;;;;;;;;5052843;28;20035;-63
2022/03/16 03:02:32;;;;;;;34.72;19.10;;;;;;;;;;5052006;28;20035;-63
2022/03/16 03:04:58;;;;;;;36.72;19.65;;;;;;;;;;5050856;28;20115;-64
2022/03/16 03:07:23;;;;;;;33.92;18.98;;;;;;;;;;5057631;28;20041;-64
2022/03/16 03:09:48;;;;;;;33.30;18.17;;;;;;;;;;5053545;28;20029;-62
2022/03/16 03:12:14;;;;;;;33.80;17.63;;;;;;;;;;5056150;28;20086;-62
2022/03/16 03:14:39;;;;;;;35.95;18.20;;;;;;;;;;5053232;28;20040;-63
2022/03/16 03:17:05;;;;;;;34.88;18.15;;;;;;;;;;5047175;28;20029;-63
2022/03/16 03:19:30;;;;;;;35.13;17.38;;;;;;;;;;5051014;28;20036;-64
2022/03/16 03:21:56;;;;;;;30.30;17.25;;;;;;;;;;5067854;28;20052;-64
2022/03/16 03:24:21;;;;;;;32.60;17.60;;;;;;;;;;5048062;28;20033;-63
2022/03/16 03:26:47;;;;;;;32.53;17.30;;;;;;;;;;5052586;28;20442;-64
2022/03/16 03:29:15;;;;;;;30.48;17.33;;;;;;;;;;5062277;28;20429;-63
2022/03/16 03:31:41;;;;;;;29.48;16.25;;;;;;;;;;5045489;28;20036;-64
2022/03/16 03:34:06;;;;;;;29.90;16.05;;;;;;;;;;5052303;28;20074;-63
2022/03/16 03:36:32;;;;;;;27.73;15.90;;;;;;;;;;5048808;28;20484;-62
2022/03/16 03:38:58;;;;;;;32.08;16.67;;;;;;;;;;5052383;28;20041;-63
2022/03/16 03:41:24;;;;;;;33.22;17.27;;;;;;;;;;5045938;28;20155;-62
2022/03/16 03:43:49;;;;;;;30.33;17.80;;;;;;;;;;5044091;28;20108;-63
2022/03/16 03:46:14;;;;;;;31.98;17.13;;;;;;;;;;5038549;28;20515;-63
2022/03/16 03:48:40;;;;;;;30.77;16.08;;;;;;;;;;5042658;28;20032;-65
2022/03/16 03:51:05;;;;;;;28.48;16.48;;;;;;;;;;5048214;28;20363;-63
2022/03/16 03:53:30;;;;;;;32.80;16.90;;;;;;;;;;5051611;28;20474;-63
2022/03/16 03:55:56;;;;;;;36.90;18.02;;;;;;;;;;5054435;28;20020;-63
2022/03/16 03:58:21;;;;;;;40.92;18.55;;;;;;;;;;5062855;28;20450;-63
2022/03/16 04:00:49;;;;;;;41.17;19.23;;;;;;;;;;5051848;28;20040;-64
2022/03/16 04:03:14;;;;;;;41.40;19.30;;;;;;;;;;5048006;28;20467;-63
2022/03/16 04:05:40;;;;;;;41.58;18.50;;;;;;;;;;5050575;28;20070;-63
2022/03/16 04:08:05;;;;;;;41.50;19.10;;;;;;;;;;5043762;28;20477;-62
2022/03/16 04:10:30;;;;;;;38.05;17.40;;;;;;;;;;5030581;28;20180;-63
2022/03/16 04:12:57;;;;;;;36.13;16.55;;;;;;;;;;5045081;28;20032;-63
2022/03/16 04:15:22;;;;;;;32.22;15.60;;;;;;;;;;5066104;28;20044;-63
2022/03/16 04:17:47;;;;;;;31.42;15.38;;;;;;;;;;5050627;28;20048;-64
2022/03/16 04:20:13;;;;;;;35.05;15.27;;;;;;;;;;5046535;28;20247;-63
2022/03/16 04:22:38;;;;;;;27.35;14.07;;;;;;;;;;5050803;28;20071;-63
2022/03/16 04:25:05;;;;;;;27.60;13.23;;;;;;;;;;5050854;28;20021;-67
2022/03/16 04:27:30;;;;;;;27.38;14.07;;;;;;;;;;5050910;28;20057;-69
2022/03/16 04:29:56;;;;;;;25.30;12.88;;;;;;;;;;5051773;28;20538;-68
2022/03/16 04:32:21;;;;;;;25.42;12.90;;;;;;;;;;5060868;28;20034;-67
2022/03/16 04:34:47;;;;;;;22.92;12.18;;;;;;;;;;5071744;28;20089;-68
2022/03/16 04:37:12;;;;;;;22.45;11.52;;;;;;;;;;5070981;28;20032;-67
2022/03/16 04:39:38;;;;;;;20.90;11.23;;;;;;;;;;5061805;28;20036;-68
2022/03/16 04:42:04;;;;;;;21.83;11.25;;;;;;;;;;5068374;28;20039;-70
2022/03/16 04:44:29;;;;;;;21.55;10.98;;;;;;;;;;5070925;28;20079;-68
2022/03/16 04:46:55;;;;;;;20.15;11.48;;;;;;;;;;5071894;28;20406;-68
2022/03/16 04:49:20;;;;;;;18.60;11.07;;;;;;;;;;5070763;28;20085;-70
2022/03/16 04:51:45;;;;;;;20.52;10.70;;;;;;;;;;5071476;28;20021;-67
2022/03/16 04:54:11;;;;;;;22.98;11.70;;;;;;;;;;5064456;28;20478;-68
2022/03/16 04:56:37;;;;;;;20.73;10.25;;;;;;;;;;5051308;28;20033;-68
2022/03/16 04:59:03;;;;;;;19.48;11.05;;;;;;;;;;5052117;28;20040;-69
2022/03/16 05:01:29;;;;;;;22.00;10.85;;;;;;;;;;5050226;28;20028;-70
2022/03/16 05:03:54;;;;;;;21.00;11.05;;;;;;;;;;5051016;28;20037;-69
2022/03/16 05:06:20;;;;;;;20.27;10.98;;;;;;;;;;5051213;28;20433;-68
2022/03/16 05:08:47;;;;;;;20.25;10.93;;;;;;;;;;5051560;28;20036;-69
2022/03/16 05:11:14;;;;;;;19.38;11.07;;;;;;;;;;5052120;28;20039;-69
2022/03/16 05:13:40;;;;;;;21.80;11.32;;;;;;;;;;5051613;28;20454;-67
2022/03/16 05:16:07;;;;;;;20.55;10.95;;;;;;;;;;5052044;28;20025;-68
2022/03/16 05:18:33;;;;;;;20.15;11.07;;;;;;;;;;5051303;28;20029;-67
2022/03/16 05:20:58;;;;;;;21.63;11.25;;;;;;;;;;5051729;28;20045;-68
2022/03/16 05:23:23;;;;;;;20.48;11.63;;;;;;;;;;5050899;28;20497;-66
2022/03/16 05:25:49;;;;;;;19.92;11.43;;;;;;;;;;5051081;28;20069;-68
2022/03/16 05:28:16;;;;;;;22.73;12.13;;;;;;;;;;5051864;28;20029;-68
2022/03/16 05:30:42;;;;;;;22.95;12.50;;;;;;;;;;5051747;28;20098;-68
2022/03/16 05:33:07;;;;;;;22.15;12.13;;;;;;;;;;5050577;28;20029;-68
2022/03/16 05:35:33;;;;;;;23.77;12.98;;;;;;;;;;5051054;28;20032;-67
2022/03/16 05:38:02;;;;;;;24.13;12.77;;;;;;;;;;5051753;28;20095;-68
2022/03/16 05:40:28;;;;;;;25.98;12.80;;;;;;;;;;5050688;28;20048;-67
2022/03/16 05:42:53;;;;;;;30.38;13.02;;;;;;;;;;5050513;28;20538;-68
2022/03/16 05:45:18;;;;;;;22.17;12.38;;;;;;;;;;5051127;28;20408;-67
2022/03/16 05:47:44;;;;;;;25.65;12.75;;;;;;;;;;5051977;28;20041;-68
2022/03/16 05:50:09;;;;;;;25.83;12.20;;;;;;;;;;5051634;28;20109;-67
2022/03/16 05:52:34;;;;;;;23.67;12.27;;;;;;;;;;5050815;28;20040;-67
2022/03/16 05:55:00;;;;;;;21.42;12.07;;;;;;;;;;5051123;28;20044;-68
2022/03/16 05:57:26;;;;;;;21.80;11.73;;;;;;;;;;5050875;28;20119;-67
2022/03/16 05:59:51;;;;;;;26.60;12.48;;;;;;;;;;5051439;28;20076;-67
2022/03/16 06:02:18;;;;;;;24.13;12.23;;;;;;;;;;5050765;28;20029;-67
2022/03/16 06:04:44;;;;;;;23.30;12.02;;;;;;;;;;5054107;28;20398;-68
2022/03/16 06:07:10;;;;;;;24.15;11.98;;;;;;;;;;5055090;28;20040;-67
2022/03/16 06:09:35;;;;;;;21.45;12.43;;;;;;;;;;5053873;28;20141;-68
2022/03/16 06:12:02;;;;;;;21.73;11.68;;;;;;;;;;5055069;28;20474;-67
2022/03/16 06:14:28;;;;;;;21.33;12.43;;;;;;;;;;5052763;28;20056;-67
2022/03/16 06:16:54;;;;;;;22.73;11.82;;;;;;;;;;5054931;28;20117;-67
2022/03/16 06:19:20;;;;;;;25.65;12.65;;;;;;;;;;5053814;28;20080;-67
2022/03/16 06:21:45;;;;;;;23.35;11.95;;;;;;;;;;5053394;28;20045;-66
2022/03/16 06:24:11;;;;;;;24.02;13.30;;;;;;;;;;5054465;28;20440;-67
2022/03/16 06:26:40;;;;;;;27.40;14.05;;;;;;;;;;5054127;28;20029;-67
2022/03/16 06:29:07;;;;;;;26.60;14.27;;;;;;;;;;5054322;28;20425;-68
2022/03/16 06:31:32;;;;;;;26.88;13.73;;;;;;;;;;5053984;28;20113;-68
2022/03/16 06:33:58;;;;;;;26.90;13.88;;;;;;;;;;5054203;28;20458;-67
2022/03/16 06:36:24;;;;;;;25.95;14.00;;;;;;;;;;5053757;28;20478;-66
2022/03/16 06:38:50;;;;;;;24.80;13.32;;;;;;;;;;5053528;28;20029;-68
2022/03/16 06:41:15;;;;;;;27.02;13.80;;;;;;;;;;5053168;28;20052;-67
2022/03/16 06:43:42;;;;;;;24.27;12.95;;;;;;;;;;5053378;28;20814;-68
2022/03/16 06:46:07;;;;;;;23.38;13.15;;;;;;;;;;5052843;28;20040;-67
2022/03/16 06:48:33;;;;;;;23.88;13.00;;;;;;;;;;5053451;28;20486;-68
2022/03/16 06:50:58;;;;;;;25.15;12.93;;;;;;;;;;5052764;28;20470;-68
2022/03/16 06:53:24;;;;;;;25.85;12.57;;;;;;;;;;5053090;28;20040;-70
2022/03/16 06:55:50;;;;;;;24.58;12.63;;;;;;;;;;5053948;28;20033;-68
2022/03/16 06:58:16;;;;;;;23.67;12.35;;;;;;;;;;5053947;28;20025;-71
2022/03/16 07:00:41;;;;;;;28.08;12.80;;;;;;;;;;5053414;28;20510;-68
2022/03/16 07:03:07;;;;;;;23.40;12.93;;;;;;;;;;5053823;28;20031;-68
2022/03/16 07:05:39;;;;;;;23.38;11.82;;;;;;;;;;5051924;28;20025;-68
2022/03/16 07:08:11;;;;;;;23.15;11.75;;;;;;;;;;5052357;28;20040;-68
2022/03/16 07:10:42;;;;;;;22.05;11.35;;;;;;;;;;5052258;28;20052;-68
2022/03/16 07:13:10;;;;;;;23.23;11.98;;;;;;;;;;5052600;28;20128;-75
2022/03/16 07:15:37;;;;;;;23.33;12.65;;;;;;;;;;5052431;28;20082;-66
2022/03/16 07:18:02;;;;;;;22.17;12.10;;;;;;;;;;5053612;28;20532;-67
2022/03/16 07:20:29;;;;;;;25.98;12.98;;;;;;;;;;5052488;28;20040;-67
2022/03/16 07:23:04;;;;;;;19.50;12.13;;;;;;;;;;5052369;28;20036;-67
2022/03/16 07:25:29;;;;;;;20.17;11.85;;;;;;;;;;5053072;28;20040;-68
2022/03/16 07:27:55;;;;;;;21.58;12.98;;;;;;;;;;5053397;28;20083;-67
2022/03/16 07:30:22;;;;;;;24.17;12.30;;;;;;;;;;5053103;28;20068;-67
2022/03/16 07:32:48;;;;;;;24.15;12.65;;;;;;;;;;5053282;28;20167;-67
2022/03/16 07:35:13;;;;;;;24.25;12.27;;;;;;;;;;5052092;28;20450;-67
2022/03/16 07:37:42;;;;;;;23.42;12.38;;;;;;;;;;5051850;28;20075;-69
2022/03/16 07:40:08;;;;;;;21.55;12.70;;;;;;;;;;5049866;28;20044;-68
2022/03/16 07:42:33;;;;;;;26.75;12.15;;;;;;;;;;5052589;28;20390;-68
2022/03/16 07:44:58;;;;;;;22.02;11.32;;;;;;;;;;5053000;28;20029;-67
2022/03/16 07:47:25;;;;;;;21.52;12.10;;;;;;;;;;5052359;28;20086;-64
2022/03/16 07:49:52;;;;;;;23.30;11.75;;;;;;;;;;5052363;28;20028;-68
2022/03/16 07:52:18;;;;;;;20.45;11.38;;;;;;;;;;5053154;28;20040;-67
2022/03/16 07:54:43;;;;;;;21.85;11.55;;;;;;;;;;5051923;28;20029;-66
2022/03/16 07:57:08;;;;;;;20.75;12.18;;;;;;;;;;5052783;28;20102;-67
2022/03/16 07:59:34;;;;;;;19.05;10.70;;;;;;;;;;5052702;28;20060;-68
2022/03/16 08:02:00;;;;;;;21.95;11.18;;;;;;;;;;5052692;28;20033;-67
2022/03/16 08:04:25;;;;;;;20.90;11.10;;;;;;;;;;5052153;28;20040;-65
2022/03/16 08:06:51;;;;;;;22.17;10.88;;;;;;;;;;5052093;28;20053;-68
2022/03/16 08:09:16;;;;;;;18.88;10.88;;;;;;;;;;5050945;28;20519;-68
2022/03/16 08:11:42;;;;;;;22.65;11.32;;;;;;;;;;5051965;28;20045;-67
2022/03/16 08:14:07;;;;;;;22.23;10.95;;;;;;;;;;5052777;28;20109;-68
2022/03/16 08:16:33;;;;;;;19.48;10.85;;;;;;;;;;5051477;28;20052;-69
2022/03/16 08:18:59;;;;;;;20.67;10.15;;;;;;;;;;5052775;28;20386;-69
2022/03/16 08:21:24;;;;;;;23.10;10.40;;;;;;;;;;5052574;28;20483;-68
2022/03/16 08:23:51;;;;;;;19.13;10.02;;;;;;;;;;5051508;28;20029;-69
2022/03/16 08:26:16;;;;;;;17.92;9.65;;;;;;;;;;5051366;28;20033;-70
2022/03/16 08:28:45;;;;;;;18.52;10.32;;;;;;;;;;5051713;28;20425;-68
2022/03/16 08:31:11;;;;;;;17.67;10.23;;;;;;;;;;5052497;28;20029;-69
2022/03/16 08:33:37;;;;;;;17.50;10.35;;;;;;;;;;5051686;28;20482;-68
2022/03/16 08:36:07;;;;;;;19.58;10.00;;;;;;;;;;5052542;28;20032;-68
2022/03/16 08:38:36;;;;;;;16.77;9.57;;;;;;;;;;5051345;28;20032;-68
2022/03/16 08:41:03;;;;;;;18.63;9.70;;;;;;;;;;5052300;28;20531;-68
2022/03/16 08:43:28;;;;;;;19.75;9.65;;;;;;;;;;5051587;28;20083;-68
2022/03/16 08:45:54;;;;;;;18.58;9.93;;;;;;;;;;5052373;28;20033;-66
2022/03/16 08:48:19;;;;;;;17.35;9.50;;;;;;;;;;5052052;28;20040;-65
2022/03/16 08:50:45;;;;;;;16.08;9.30;;;;;;;;;;5051517;28;20443;-67
2022/03/16 08:53:10;;;;;;;16.92;9.55;;;;;;;;;;5051278;28;20086;-68
2022/03/16 08:55:37;;;;;;;16.75;9.85;;;;;;;;;;5051237;28;20413;-68
2022/03/16 08:58:02;;;;;;;18.05;9.65;;;;;;;;;;5051777;28;20029;-70
2022/03/16 09:00:29;;;;;;;18.13;9.73;;;;;;;;;;5050627;28;20040;-65
2022/03/16 09:02:56;;;;;;;15.93;9.02;;;;;;;;;;5049156;28;20120;-69
2022/03/16 09:05:22;;;;;;;19.20;10.10;;;;;;;;;;5051762;28;20052;-69
2022/03/16 09:07:48;;;;;;;19.17;9.18;;;;;;;;;;5051227;28;20405;-70
2022/03/16 09:10:13;;;;;;;16.73;9.48;;;;;;;;;;5051450;28;20083;-70
2022/03/16 09:12:39;;;;;;;20.52;9.77;;;;;;;;;;5051266;28;20128;-68
2022/03/16 09:15:05;;;;;;;16.13;8.90;;;;;;;;;;5052052;28;20025;-69
2022/03/16 09:17:33;;;;;;;17.67;9.15;;;;;;;;;;5051072;28;20112;-68
2022/03/16 09:19:58;;;;;;;16.95;9.20;;;;;;;;;;5052055;28;20032;-70
2022/03/16 09:22:24;;;;;;;17.77;9.38;;;;;;;;;;5051662;28;20098;-69
2022/03/16 09:24:49;;;;;;;17.15;9.10;;;;;;;;;;5050751;28;20124;-68
2022/03/16 09:27:16;;;;;;;18.25;9.48;;;;;;;;;;5052005;28;20485;-69
2022/03/16 09:29:46;;;;;;;16.35;8.93;;;;;;;;;;5051235;28;20033;-69
2022/03/16 09:32:12;;;;;;;17.92;9.30;;;;;;;;;;5051960;28;20029;-69
2022/03/16 09:34:38;;;;;;;15.93;9.43;;;;;;;;;;5049916;28;20113;-71
2022/03/16 09:37:04;;;;;;;16.45;9.55;;;;;;;;;;5051459;28;20171;-69
2022/03/16 09:39:31;;;;;;;15.52;9.07;;;;;;;;;;5053912;28;20037;-65
2022/03/16 09:41:58;;;;;;;15.82;9.20;;;;;;;;;;5055796;28;20032;-70
2022/03/16 09:44:24;;;;;;;16.33;9.30;;;;;;;;;;5055567;28;20036;-70
2022/03/16 09:46:53;;;;;;;16.15;9.13;;;;;;;;;;5054591;28;20063;-69
2022/03/16 09:49:18;;;;;;;17.00;9.98;;;;;;;;;;5055696;28;20033;-70
2022/03/16 09:51:44;;;;;;;15.43;9.02;;;;;;;;;;5054848;28;20393;-71
2022/03/16 09:54:09;;;;;;;15.57;9.18;;;;;;;;;;5055394;28;20429;-67
2022/03/16 09:56:36;;;;;;;17.00;9.05;;;;;;;;;;5054218;28;20036;-69
2022/03/16 09:59:01;;;;;;;15.27;8.98;;;;;;;;;;5055493;28;20033;-69
2022/03/16 10:01:27;;;;;;;17.15;9.30;;;;;;;;;;5055020;28;20029;-69
2022/03/16 10:03:59;;;;;;;14.25;8.63;;;;;;;;;;5054301;28;20466;-70
2022/03/16 10:06:25;;;;;;;17.40;9.00;;;;;;;;;;5054863;28;20563;-70
2022/03/16 10:14:18;;;;;;;14.45;8.93;;;;;;;;;;5054803;28;20506;-70
2022/03/16 10:19:49;;;;;;;14.00;8.93;;;;;;;;;;5053989;28;20039;-70
2022/03/16 10:22:25;;;;;;;15.63;9.57;;;;;;;;;;5054709;28;20049;-70
2022/03/16 10:24:54;;;;;;;15.10;8.73;;;;;;;;;;5034231;28;20037;-70
2022/03/16 10:27:20;;;;;;;14.43;9.02;;;;;;;;;;5034587;28;20072;-70
2022/03/16 10:29:46;;;;;;;17.20;9.20;;;;;;;;;;5034164;28;20065;-69
2022/03/16 10:32:12;;;;;;;13.65;8.85;;;;;;;;;;5034719;28;20033;-69
2022/03/16 10:34:49;;;;;;;17.42;9.35;;;;;;;;;;5033987;28;20025;-69
2022/03/16 10:37:19;;;;;;;20.60;9.02;;;;;;;;;;5037780;28;20025;-69
2022/03/16 10:39:47;;;;;;;14.85;9.13;;;;;;;;;;5053906;28;20037;-69
2022/03/16 10:48:13;;;;;;;12.30;8.07;;;;;;;;;;5054532;28;20090;-69
2022/03/16 10:50:40;;;;;;;12.32;8.02;;;;;;;;;;5052426;28;20068;-69
2022/03/16 10:53:29;;;;;;;14.52;8.10;;;;;;;;;;5053901;28;20056;-69
2022/03/16 10:55:56;;;;;;;11.18;7.22;;;;;;;;;;5053471;28;20047;-69
2022/03/16 10:58:23;;;;;;;11.38;7.15;;;;;;;;;;5054279;28;20087;-69
2022/03/16 11:00:52;;;;;;;10.98;7.05;;;;;;;;;;5052078;28;20116;-70
2022/03/16 11:03:22;;;;;;;11.40;6.25;;;;;;;;;;5054277;28;20033;-69
2022/03/16 11:05:49;;;;;;;10.75;6.38;;;;;;;;;;5053452;28;20056;-68
2022/03/16 11:08:43;;;;;;;9.75;6.60;;;;;;;;;;5053518;28;20041;-68
2022/03/16 11:13:54;;;;;;;9.00;6.03;;;;;;;;;;5033110;28;20093;-69
2022/03/16 11:16:21;;;;;;;10.65;6.57;;;;;;;;;;5033746;28;20029;-70
2022/03/16 11:18:51;;;;;;;9.05;6.18;;;;;;;;;;5033260;28;20064;-70
2022/03/16 11:21:23;;;;;;;9.32;6.40;;;;;;;;;;5033710;28;20049;-70
2022/03/16 11:26:46;;;;;;;11.25;6.25;;;;;;;;;;5053338;28;20094;-70
2022/03/16 11:29:15;;;;;;;9.43;5.80;;;;;;;;;;5053698;28;20079;-69
2022/03/16 11:31:42;;;;;;;9.10;6.43;;;;;;;;;;5052880;28;20025;-68
2022/03/16 11:34:10;;;;;;;10.27;6.90;;;;;;;;;;5053346;28;20550;-69
2022/03/16 11:36:40;;;;;;;11.30;7.00;;;;;;;;;;5051704;28;20029;-69
2022/03/16 11:39:18;;;;;;;8.90;6.20;;;;;;;;;;5052922;28;20124;-69
2022/03/16 11:41:49;;;;;;;8.90;6.65;;;;;;;;;;5050771;28;20462;-68
2022/03/16 11:44:25;;;;;;;9.77;6.75;;;;;;;;;;5051926;28;20057;-69
2022/03/16 11:46:53;;;;;;;9.43;6.55;;;;;;;;;;5052779;28;20044;-69
2022/03/16 11:49:29;;;;;;;11.43;6.80;;;;;;;;;;5053178;28;20036;-68
2022/03/16 11:52:02;;;;;;;9.88;6.50;;;;;;;;;;5050782;28;20056;-68
2022/03/16 11:54:47;;;;;;;9.43;6.13;;;;;;;;;;5051797;28;20456;-68
2022/03/16 11:57:15;;;;;;;8.65;6.10;;;;;;;;;;5052330;28;20028;-68
2022/03/16 12:00:01;;;;;;;9.95;6.35;;;;;;;;;;5052398;28;20029;-67
2022/03/16 12:02:27;;;;;;;8.68;6.30;;;;;;;;;;5052455;28;20114;-68
2022/03/16 12:05:01;;;;;;;11.20;7.20;;;;;;;;;;5051796;28;20103;-67
2022/03/16 12:07:30;;;;;;;9.50;6.60;;;;;;;;;;5052328;28;20025;-68
2022/03/16 12:09:55;;;;;;;9.95;6.50;;;;;;;;;;5051851;28;20025;-68
2022/03/16 12:12:57;;;;;;;9.82;6.32;;;;;;;;;;5052708;28;20482;-68
2022/03/16 12:15:34;;;;;;;8.60;6.40;;;;;;;;;;5052851;28;20056;-68
2022/03/16 12:18:00;;;;;;;9.30;6.68;;;;;;;;;;5051944;28;20033;-68
2022/03/16 12:20:30;;;;;;;9.50;6.45;;;;;;;;;;5051406;28;20043;-69
2022/03/16 12:22:57;;;;;;;8.98;6.10;;;;;;;;;;5051331;28;20148;-68
2022/03/16 12:25:25;;;;;;;9.30;6.00;;;;;;;;;;5052877;28;20112;-68
2022/03/16 12:31:11;;;;;;;8.23;6.10;;;;;;;;;;5051850;28;20170;-67
2022/03/16 12:33:41;;;;;;;7.88;6.20;;;;;;;;;;5052303;28;20033;-68
2022/03/16 12:36:11;;;;;;;;;;;;;;;;;;5052765;28;20024;-67
2022/03/16 12:38:39;;;;;;;8.40;5.60;;;;;;;;;;5051708;28;19999;-69
2022/03/16 12:43:56;;;;;;;8.13;5.25;;;;;;;;;;5051724;28;20183;-68
2022/03/16 12:46:36;;;;;;;9.07;5.90;;;;;;;;;;5051764;28;20029;-68
2022/03/16 12:49:12;;;;;;;8.85;5.63;;;;;;;;;;5051460;28;20043;-68
2022/03/16 12:51:43;;;;;;;8.15;5.13;;;;;;;;;;5051683;28;20112;-68
2022/03/16 12:54:10;;;;;;;8.52;5.55;;;;;;;;;;5052286;28;20024;-67
2022/03/16 12:56:43;;;;;;;7.13;5.10;;;;;;;;;;5051776;28;20045;-67
2022/03/16 12:59:10;;;;;;;8.88;5.22;;;;;;;;;;5052354;28;20039;-68
2022/03/16 13:01:37;;;;;;;7.93;5.28;;;;;;;;;;5052192;28;20036;-68
2022/03/16 13:04:04;;;;;;;8.27;5.60;;;;;;;;;;5051211;28;20043;-68
2022/03/16 13:06:34;;;;;;;8.10;5.80;;;;;;;;;;5051365;28;20398;-67
2022/03/16 13:09:08;;;;;;;8.00;5.88;;;;;;;;;;5051522;28;20098;-67
2022/03/16 13:11:34;;;;;;;9.40;5.63;;;;;;;;;;5050982;28;20090;-68
2022/03/16 13:14:06;;;;;;;8.02;5.55;;;;;;;;;;5053850;28;20351;-67
2022/03/16 13:16:38;;;;;;;7.50;5.60;;;;;;;;;;5054953;28;20057;-66
2022/03/16 13:19:05;;;;;;;9.77;5.50;;;;;;;;;;5055200;28;20040;-67
2022/03/16 13:21:31;;;;;;;8.93;6.30;;;;;;;;;;5055606;28;20067;-66
2022/03/16 13:24:05;;;;;;;8.48;6.32;;;;;;;;;;5054014;28;20052;-67
2022/03/16 13:26:31;;;;;;;9.48;5.97;;;;;;;;;;5055806;28;20462;-67
2022/03/16 13:29:02;;;;;;;9.15;5.80;;;;;;;;;;5055155;28;20021;-66
2022/03/16 13:31:29;;;;;;;9.90;5.95;;;;;;;;;;5055968;28;20032;-67
2022/03/16 13:34:01;;;;;;;7.65;5.88;;;;;;;;;;5053968;28;20032;-67
2022/03/16 13:36:42;;;;;;;8.05;5.82;;;;;;;;;;5054850;28;20025;-66
2022/03/16 13:39:27;;;;;;;9.13;5.97;;;;;;;;;;5055236;28;20029;-68
2022/03/16 13:42:15;;;;;;;7.70;5.70;;;;;;;;;;5054934;28;20098;-66
2022/03/16 13:44:47;;;;;;;8.98;5.90;;;;;;;;;;5055258;28;20159;-67
2022/03/16 13:47:12;;;;;;;9.25;6.40;;;;;;;;;;5055431;28;20025;-67
2022/03/16 13:49:42;;;;;;;9.80;6.20;;;;;;;;;;5055879;28;20087;-66
2022/03/16 13:52:28;;;;;;;8.98;6.13;;;;;;;;;;5052992;28;20048;-68
2022/03/16 13:55:07;;;;;;;12.25;6.10;;;;;;;;;;5052004;28;20036;-68
2022/03/16 13:57:41;;;;;;;8.30;5.95;;;;;;;;;;5054026;28;20029;-68
2022/03/16 14:00:09;;;;;;;8.50;5.95;;;;;;;;;;5054820;28;20032;-68
2022/03/16 14:02:35;;;;;;;19.55;6.00;;;;;;;;;;5055319;28;20079;-68
2022/03/16 14:05:16;;;;;;;9.35;5.50;;;;;;;;;;5054639;28;20036;-68
2022/03/16 14:07:45;;;;;;;8.32;5.43;;;;;;;;;;5054790;28;20108;-68
2022/03/16 14:10:11;;;;;;;8.85;5.90;;;;;;;;;;5054262;28;20053;-69
2022/03/16 14:12:41;;;;;;;8.10;5.30;;;;;;;;;;5053923;28;20067;-69
2022/03/16 14:15:18;;;;;;;9.48;5.68;;;;;;;;;;5054524;28;20079;-67
2022/03/16 14:17:46;;;;;;;8.00;5.38;;;;;;;;;;5054976;28;20025;-67
2022/03/16 14:20:17;;;;;;;8.30;5.85;;;;;;;;;;5054721;28;20459;-68
2022/03/16 14:22:52;;;;;;;8.18;5.30;;;;;;;;;;5052592;28;20045;-68
2022/03/16 14:25:22;;;;;;;8.57;5.22;;;;;;;;;;5054706;28;20364;-68
2022/03/16 14:27:49;;;;;;;8.63;5.20;;;;;;;;;;5052768;28;20437;-64
2022/03/16 14:30:19;;;;;;;8.85;5.20;;;;;;;;;;5054696;28;20405;-68
2022/03/16 14:32:49;;;;;;;6.93;4.87;;;;;;;;;;5054680;28;20104;-69
2022/03/16 14:35:16;;;;;;;8.75;5.13;;;;;;;;;;5054638;28;20025;-68
2022/03/16 14:37:42;;;;;;;8.60;5.38;;;;;;;;;;5054093;28;20032;-69
2022/03/16 14:40:11;;;;;;;10.80;6.07;;;;;;;;;;5054178;28;20276;-69
2022/03/16 14:42:40;;;;;;;8.00;5.57;;;;;;;;;;5054205;28;20438;-68
2022/03/16 14:45:06;;;;;;;10.82;5.80;;;;;;;;;;5054220;28;20459;-68
2022/03/16 14:47:31;;;;;;;8.50;5.70;;;;;;;;;;5053095;28;20386;-68
2022/03/16 14:49:58;;;;;;;8.82;5.32;;;;;;;;;;5052470;28;20033;-67
2022/03/16 14:52:24;;;;;;;7.80;5.20;;;;;;;;;;5053645;28;20036;-69
2022/03/16 14:54:50;;;;;;;7.70;4.95;;;;;;;;;;5053398;28;20029;-68